sensor_id;sensor_type;location;lat;lon;timestamp;P1;durP1;ratioP1;P2;durP2;ratioP2
4422;SDS011;2224;49.814;8.650;2024-03-08T00:02:11;26.30;;;17.93;;
4422;SDS011;2224;49.814;8.650;2024-03-08T00:04:38;24.70;;;18.17;;
4422;SDS011;2224;49.814;8.650;2024-03-08T00:07:03;27.23;;;18.20;;
4422;SDS011;2224;49.814;8.650;2024-03-08T00:09:28;24.00;;;17.43;;
4422;SDS011;2224;49.814;8.650;2024-03-08T00:11:55;23.90;;;17.80;;
4422;SDS011;2224;49.814;8.650;2024-03-08T00:14:21;31.10;;;18.40;;
4422;SDS011;2224;49.814;8.650;2024-03-08T00:16:46;27.93;;;18.43;;
4422;SDS011;2224;49.814;8.650;2024-03-08T00:19:12;26.57;;;18.73;;
4422;SDS011;2224;49.814;8.650;2024-03-08T00:21:37;23.47;;;18.47;;
4422;SDS011;2224;49.814;8.650;2024-03-08T00:24:03;25.63;;;18.57;;
4422;SDS011;2224;49.814;8.650;2024-03-08T00:26:28;22.20;;;16.17;;
4422;SDS011;2224;49.814;8.650;2024-03-08T00:28:55;23.50;;;16.13;;
4422;SDS011;2224;49.814;8.650;2024-03-08T00:31:21;25.17;;;17.60;;
4422;SDS011;2224;49.814;8.650;2024-03-08T00:33:46;26.10;;;16.57;;
4422;SDS011;2224;49.814;8.650;2024-03-08T00:36:12;25.13;;;18.10;;
4422;SDS011;2224;49.814;8.650;2024-03-08T00:38:37;27.47;;;19.97;;
4422;SDS011;2224;49.814;8.650;2024-03-08T00:41:02;25.60;;;18.40;;
4422;SDS011;2224;49.814;8.650;2024-03-08T00:43:28;24.30;;;17.93;;
4422;SDS011;2224;49.814;8.650;2024-03-08T00:45:55;23.70;;;17.33;;
4422;SDS011;2224;49.814;8.650;2024-03-08T00:48:20;26.93;;;18.43;;
4422;SDS011;2224;49.814;8.650;2024-03-08T00:50:46;25.73;;;18.43;;
4422;SDS011;2224;49.814;8.650;2024-03-08T00:53:11;30.17;;;17.80;;
4422;SDS011;2224;49.814;8.650;2024-03-08T00:55:37;27.40;;;18.30;;
4422;SDS011;2224;49.814;8.650;2024-03-08T00:58:03;21.97;;;17.60;;
4422;SDS011;2224;49.814;8.650;2024-03-08T01:00:29;25.97;;;16.50;;
4422;SDS011;2224;49.814;8.650;2024-03-08T01:02:54;26.37;;;18.30;;
4422;SDS011;2224;49.814;8.650;2024-03-08T01:05:19;27.63;;;16.90;;
4422;SDS011;2224;49.814;8.650;2024-03-08T01:07:45;23.40;;;17.43;;
4422;SDS011;2224;49.814;8.650;2024-03-08T01:10:11;24.57;;;17.73;;
4422;SDS011;2224;49.814;8.650;2024-03-08T01:12:37;21.50;;;17.27;;
4422;SDS011;2224;49.814;8.650;2024-03-08T01:15:03;25.40;;;18.00;;
4422;SDS011;2224;49.814;8.650;2024-03-08T01:17:28;29.47;;;18.90;;
4422;SDS011;2224;49.814;8.650;2024-03-08T01:19:54;24.10;;;17.33;;
4422;SDS011;2224;49.814;8.650;2024-03-08T01:22:19;30.83;;;19.23;;
4422;SDS011;2224;49.814;8.650;2024-03-08T01:24:44;22.90;;;16.80;;
4422;SDS011;2224;49.814;8.650;2024-03-08T01:27:10;25.47;;;18.00;;
4422;SDS011;2224;49.814;8.650;2024-03-08T01:29:36;26.70;;;19.30;;
4422;SDS011;2224;49.814;8.650;2024-03-08T01:32:02;24.80;;;17.20;;
4422;SDS011;2224;49.814;8.650;2024-03-08T01:34:28;23.50;;;17.87;;
4422;SDS011;2224;49.814;8.650;2024-03-08T01:36:53;27.43;;;18.70;;
4422;SDS011;2224;49.814;8.650;2024-03-08T01:39:20;30.20;;;17.30;;
4422;SDS011;2224;49.814;8.650;2024-03-08T01:41:47;25.53;;;18.70;;
4422;SDS011;2224;49.814;8.650;2024-03-08T01:44:12;26.63;;;18.33;;
4422;SDS011;2224;49.814;8.650;2024-03-08T01:46:42;24.47;;;18.80;;
4422;SDS011;2224;49.814;8.650;2024-03-08T01:49:09;24.17;;;17.50;;
4422;SDS011;2224;49.814;8.650;2024-03-08T01:51:35;28.07;;;18.70;;
4422;SDS011;2224;49.814;8.650;2024-03-08T01:54:00;26.00;;;17.63;;
4422;SDS011;2224;49.814;8.650;2024-03-08T01:56:26;32.43;;;19.60;;
4422;SDS011;2224;49.814;8.650;2024-03-08T01:58:52;28.57;;;18.87;;
4422;SDS011;2224;49.814;8.650;2024-03-08T02:01:17;26.20;;;18.90;;
4422;SDS011;2224;49.814;8.650;2024-03-08T02:03:44;26.97;;;18.90;;
4422;SDS011;2224;49.814;8.650;2024-03-08T02:06:11;24.83;;;17.50;;
4422;SDS011;2224;49.814;8.650;2024-03-08T02:08:38;28.60;;;18.60;;
4422;SDS011;2224;49.814;8.650;2024-03-08T02:11:04;26.70;;;18.90;;
4422;SDS011;2224;49.814;8.650;2024-03-08T02:13:30;25.50;;;19.47;;
4422;SDS011;2224;49.814;8.650;2024-03-08T02:15:56;29.17;;;18.10;;
4422;SDS011;2224;49.814;8.650;2024-03-08T02:18:27;26.80;;;17.07;;
4422;SDS011;2224;49.814;8.650;2024-03-08T02:20:56;24.53;;;17.47;;
4422;SDS011;2224;49.814;8.650;2024-03-08T02:23:22;29.40;;;17.83;;
4422;SDS011;2224;49.814;8.650;2024-03-08T02:25:49;25.80;;;18.00;;
4422;SDS011;2224;49.814;8.650;2024-03-08T02:28:15;27.60;;;17.80;;
4422;SDS011;2224;49.814;8.650;2024-03-08T02:30:43;28.43;;;18.00;;
4422;SDS011;2224;49.814;8.650;2024-03-08T02:33:09;27.83;;;19.03;;
4422;SDS011;2224;49.814;8.650;2024-03-08T02:35:34;29.07;;;19.53;;
4422;SDS011;2224;49.814;8.650;2024-03-08T02:38:00;25.37;;;18.20;;
4422;SDS011;2224;49.814;8.650;2024-03-08T02:40:26;24.23;;;17.03;;
4422;SDS011;2224;49.814;8.650;2024-03-08T02:42:51;24.17;;;17.30;;
4422;SDS011;2224;49.814;8.650;2024-03-08T02:45:17;26.13;;;19.27;;
4422;SDS011;2224;49.814;8.650;2024-03-08T02:47:43;27.13;;;18.37;;
4422;SDS011;2224;49.814;8.650;2024-03-08T02:50:08;27.20;;;18.80;;
4422;SDS011;2224;49.814;8.650;2024-03-08T02:52:34;30.63;;;18.00;;
4422;SDS011;2224;49.814;8.650;2024-03-08T02:55:00;24.83;;;16.37;;
4422;SDS011;2224;49.814;8.650;2024-03-08T02:57:26;27.00;;;18.10;;
4422;SDS011;2224;49.814;8.650;2024-03-08T02:59:53;28.93;;;18.90;;
4422;SDS011;2224;49.814;8.650;2024-03-08T03:02:18;26.20;;;16.83;;
4422;SDS011;2224;49.814;8.650;2024-03-08T03:04:44;25.40;;;17.40;;
4422;SDS011;2224;49.814;8.650;2024-03-08T03:07:09;29.37;;;20.17;;
4422;SDS011;2224;49.814;8.650;2024-03-08T03:09:35;28.13;;;18.20;;
4422;SDS011;2224;49.814;8.650;2024-03-08T03:12:00;26.00;;;17.97;;
4422;SDS011;2224;49.814;8.650;2024-03-08T03:14:25;28.37;;;18.10;;
4422;SDS011;2224;49.814;8.650;2024-03-08T03:16:53;29.80;;;18.13;;
4422;SDS011;2224;49.814;8.650;2024-03-08T03:19:19;26.90;;;18.00;;
4422;SDS011;2224;49.814;8.650;2024-03-08T03:21:45;28.93;;;18.80;;
4422;SDS011;2224;49.814;8.650;2024-03-08T03:24:11;27.47;;;18.27;;
4422;SDS011;2224;49.814;8.650;2024-03-08T03:26:37;28.37;;;19.67;;
4422;SDS011;2224;49.814;8.650;2024-03-08T03:29:06;27.57;;;16.57;;
4422;SDS011;2224;49.814;8.650;2024-03-08T03:31:31;26.23;;;18.63;;
4422;SDS011;2224;49.814;8.650;2024-03-08T03:33:57;29.57;;;19.17;;
4422;SDS011;2224;49.814;8.650;2024-03-08T03:36:27;29.13;;;19.40;;
4422;SDS011;2224;49.814;8.650;2024-03-08T03:38:53;27.57;;;18.53;;
4422;SDS011;2224;49.814;8.650;2024-03-08T03:41:29;28.37;;;19.10;;
4422;SDS011;2224;49.814;8.650;2024-03-08T03:43:55;24.63;;;18.00;;
4422;SDS011;2224;49.814;8.650;2024-03-08T03:46:20;26.70;;;18.43;;
4422;SDS011;2224;49.814;8.650;2024-03-08T03:48:45;28.87;;;19.00;;
4422;SDS011;2224;49.814;8.650;2024-03-08T03:51:11;28.17;;;18.10;;
4422;SDS011;2224;49.814;8.650;2024-03-08T03:53:36;28.13;;;19.30;;
4422;SDS011;2224;49.814;8.650;2024-03-08T03:56:02;29.50;;;20.03;;
4422;SDS011;2224;49.814;8.650;2024-03-08T03:58:28;30.70;;;19.83;;
4422;SDS011;2224;49.814;8.650;2024-03-08T04:00:54;27.63;;;18.90;;
4422;SDS011;2224;49.814;8.650;2024-03-08T04:03:19;26.30;;;19.20;;
4422;SDS011;2224;49.814;8.650;2024-03-08T04:05:46;29.13;;;18.13;;
4422;SDS011;2224;49.814;8.650;2024-03-08T04:08:11;29.33;;;18.90;;
4422;SDS011;2224;49.814;8.650;2024-03-08T04:10:36;29.53;;;19.17;;
4422;SDS011;2224;49.814;8.650;2024-03-08T04:13:02;31.80;;;19.27;;
4422;SDS011;2224;49.814;8.650;2024-03-08T04:15:28;27.80;;;18.10;;
4422;SDS011;2224;49.814;8.650;2024-03-08T04:17:54;30.07;;;19.63;;
4422;SDS011;2224;49.814;8.650;2024-03-08T04:20:19;30.10;;;19.20;;
4422;SDS011;2224;49.814;8.650;2024-03-08T04:22:46;28.77;;;18.67;;
4422;SDS011;2224;49.814;8.650;2024-03-08T04:25:14;28.57;;;19.20;;
4422;SDS011;2224;49.814;8.650;2024-03-08T04:27:39;33.47;;;18.70;;
4422;SDS011;2224;49.814;8.650;2024-03-08T04:30:06;28.33;;;17.70;;
4422;SDS011;2224;49.814;8.650;2024-03-08T04:32:34;27.53;;;17.60;;
4422;SDS011;2224;49.814;8.650;2024-03-08T04:35:00;31.57;;;19.10;;
4422;SDS011;2224;49.814;8.650;2024-03-08T04:37:28;31.63;;;20.03;;
4422;SDS011;2224;49.814;8.650;2024-03-08T04:39:57;34.90;;;20.20;;
4422;SDS011;2224;49.814;8.650;2024-03-08T04:42:22;30.90;;;20.07;;
4422;SDS011;2224;49.814;8.650;2024-03-08T04:44:48;28.77;;;19.97;;
4422;SDS011;2224;49.814;8.650;2024-03-08T04:47:13;28.50;;;19.33;;
4422;SDS011;2224;49.814;8.650;2024-03-08T04:49:39;31.27;;;19.33;;
4422;SDS011;2224;49.814;8.650;2024-03-08T04:52:04;29.43;;;19.80;;
4422;SDS011;2224;49.814;8.650;2024-03-08T04:54:30;29.73;;;18.63;;
4422;SDS011;2224;49.814;8.650;2024-03-08T04:56:56;29.67;;;18.83;;
4422;SDS011;2224;49.814;8.650;2024-03-08T04:59:21;26.67;;;19.63;;
4422;SDS011;2224;49.814;8.650;2024-03-08T05:01:46;30.57;;;18.60;;
4422;SDS011;2224;49.814;8.650;2024-03-08T05:04:12;27.43;;;19.80;;
4422;SDS011;2224;49.814;8.650;2024-03-08T05:06:38;30.93;;;19.77;;
4422;SDS011;2224;49.814;8.650;2024-03-08T05:09:03;32.97;;;19.17;;
4422;SDS011;2224;49.814;8.650;2024-03-08T05:11:44;29.43;;;19.43;;
4422;SDS011;2224;49.814;8.650;2024-03-08T05:14:10;30.87;;;19.97;;
4422;SDS011;2224;49.814;8.650;2024-03-08T05:16:37;31.67;;;19.80;;
4422;SDS011;2224;49.814;8.650;2024-03-08T05:19:02;34.03;;;20.10;;
4422;SDS011;2224;49.814;8.650;2024-03-08T05:21:28;30.80;;;20.53;;
4422;SDS011;2224;49.814;8.650;2024-03-08T05:23:54;28.83;;;18.20;;
4422;SDS011;2224;49.814;8.650;2024-03-08T05:26:19;29.23;;;20.00;;
4422;SDS011;2224;49.814;8.650;2024-03-08T05:28:45;31.00;;;20.23;;
4422;SDS011;2224;49.814;8.650;2024-03-08T05:31:17;30.40;;;19.30;;
4422;SDS011;2224;49.814;8.650;2024-03-08T05:33:44;30.53;;;20.30;;
4422;SDS011;2224;49.814;8.650;2024-03-08T05:36:09;30.13;;;20.50;;
4422;SDS011;2224;49.814;8.650;2024-03-08T05:38:36;34.13;;;19.03;;
4422;SDS011;2224;49.814;8.650;2024-03-08T05:41:01;28.10;;;19.37;;
4422;SDS011;2224;49.814;8.650;2024-03-08T05:43:27;31.10;;;19.37;;
4422;SDS011;2224;49.814;8.650;2024-03-08T05:45:52;32.27;;;18.80;;
4422;SDS011;2224;49.814;8.650;2024-03-08T05:48:18;35.67;;;20.50;;
4422;SDS011;2224;49.814;8.650;2024-03-08T05:50:43;31.97;;;20.10;;
4422;SDS011;2224;49.814;8.650;2024-03-08T05:53:09;30.27;;;20.87;;
4422;SDS011;2224;49.814;8.650;2024-03-08T05:55:34;33.93;;;20.37;;
4422;SDS011;2224;49.814;8.650;2024-03-08T05:58:00;29.30;;;19.80;;
4422;SDS011;2224;49.814;8.650;2024-03-08T06:00:26;32.93;;;20.07;;
4422;SDS011;2224;49.814;8.650;2024-03-08T06:02:51;32.93;;;20.00;;
4422;SDS011;2224;49.814;8.650;2024-03-08T06:05:17;29.50;;;19.50;;
4422;SDS011;2224;49.814;8.650;2024-03-08T06:07:42;34.60;;;21.53;;
4422;SDS011;2224;49.814;8.650;2024-03-08T06:10:08;28.83;;;18.93;;
4422;SDS011;2224;49.814;8.650;2024-03-08T06:12:35;35.23;;;22.00;;
4422;SDS011;2224;49.814;8.650;2024-03-08T06:15:05;34.20;;;19.20;;
4422;SDS011;2224;49.814;8.650;2024-03-08T06:17:31;30.47;;;20.13;;
4422;SDS011;2224;49.814;8.650;2024-03-08T06:19:56;31.67;;;18.97;;
4422;SDS011;2224;49.814;8.650;2024-03-08T06:22:21;30.87;;;19.10;;
4422;SDS011;2224;49.814;8.650;2024-03-08T06:24:47;29.00;;;19.03;;
4422;SDS011;2224;49.814;8.650;2024-03-08T06:27:12;31.20;;;19.50;;
4422;SDS011;2224;49.814;8.650;2024-03-08T06:29:38;30.40;;;20.63;;
4422;SDS011;2224;49.814;8.650;2024-03-08T06:32:04;31.33;;;20.97;;
4422;SDS011;2224;49.814;8.650;2024-03-08T06:34:32;34.17;;;21.90;;
4422;SDS011;2224;49.814;8.650;2024-03-08T06:36:58;30.37;;;20.20;;
4422;SDS011;2224;49.814;8.650;2024-03-08T06:39:25;36.70;;;22.10;;
4422;SDS011;2224;49.814;8.650;2024-03-08T06:41:51;30.33;;;20.20;;
4422;SDS011;2224;49.814;8.650;2024-03-08T06:44:16;34.43;;;20.97;;
4422;SDS011;2224;49.814;8.650;2024-03-08T06:46:42;33.27;;;20.50;;
4422;SDS011;2224;49.814;8.650;2024-03-08T06:49:07;29.70;;;20.03;;
4422;SDS011;2224;49.814;8.650;2024-03-08T06:51:34;31.30;;;20.30;;
4422;SDS011;2224;49.814;8.650;2024-03-08T06:53:59;31.50;;;20.37;;
4422;SDS011;2224;49.814;8.650;2024-03-08T06:56:25;29.90;;;19.57;;
4422;SDS011;2224;49.814;8.650;2024-03-08T06:58:50;31.20;;;21.90;;
4422;SDS011;2224;49.814;8.650;2024-03-08T07:01:16;38.40;;;22.10;;
4422;SDS011;2224;49.814;8.650;2024-03-08T07:03:42;35.10;;;22.07;;
4422;SDS011;2224;49.814;8.650;2024-03-08T07:06:10;36.60;;;22.10;;
4422;SDS011;2224;49.814;8.650;2024-03-08T07:08:36;45.27;;;21.90;;
4422;SDS011;2224;49.814;8.650;2024-03-08T07:11:01;36.57;;;21.90;;
4422;SDS011;2224;49.814;8.650;2024-03-08T07:13:27;32.50;;;21.03;;
4422;SDS011;2224;49.814;8.650;2024-03-08T07:15:53;30.67;;;19.53;;
4422;SDS011;2224;49.814;8.650;2024-03-08T07:18:18;38.53;;;22.20;;
4422;SDS011;2224;49.814;8.650;2024-03-08T07:20:44;32.50;;;20.23;;
4422;SDS011;2224;49.814;8.650;2024-03-08T07:23:09;32.23;;;20.90;;
4422;SDS011;2224;49.814;8.650;2024-03-08T07:25:35;33.63;;;22.40;;
4422;SDS011;2224;49.814;8.650;2024-03-08T07:28:01;32.77;;;21.50;;
4422;SDS011;2224;49.814;8.650;2024-03-08T07:30:26;35.07;;;21.63;;
4422;SDS011;2224;49.814;8.650;2024-03-08T07:33:10;34.57;;;22.33;;
4422;SDS011;2224;49.814;8.650;2024-03-08T07:35:39;31.60;;;21.90;;
4422;SDS011;2224;49.814;8.650;2024-03-08T07:38:05;33.13;;;22.40;;
4422;SDS011;2224;49.814;8.650;2024-03-08T07:40:35;33.27;;;22.30;;
4422;SDS011;2224;49.814;8.650;2024-03-08T07:43:01;34.57;;;22.20;;
4422;SDS011;2224;49.814;8.650;2024-03-08T07:45:27;31.93;;;21.67;;
4422;SDS011;2224;49.814;8.650;2024-03-08T07:47:52;35.37;;;22.40;;
4422;SDS011;2224;49.814;8.650;2024-03-08T07:50:18;32.90;;;21.30;;
4422;SDS011;2224;49.814;8.650;2024-03-08T07:52:44;33.63;;;21.03;;
4422;SDS011;2224;49.814;8.650;2024-03-08T07:55:09;33.30;;;21.13;;
4422;SDS011;2224;49.814;8.650;2024-03-08T07:57:35;37.87;;;22.40;;
4422;SDS011;2224;49.814;8.650;2024-03-08T08:00:03;35.17;;;21.83;;
4422;SDS011;2224;49.814;8.650;2024-03-08T08:02:32;31.20;;;21.30;;
4422;SDS011;2224;49.814;8.650;2024-03-08T08:04:57;30.17;;;20.90;;
4422;SDS011;2224;49.814;8.650;2024-03-08T08:07:24;33.10;;;21.47;;
4422;SDS011;2224;49.814;8.650;2024-03-08T08:09:49;33.73;;;22.43;;
4422;SDS011;2224;49.814;8.650;2024-03-08T08:12:14;34.87;;;21.90;;
4422;SDS011;2224;49.814;8.650;2024-03-08T08:14:41;31.40;;;21.87;;
4422;SDS011;2224;49.814;8.650;2024-03-08T08:17:06;32.20;;;20.23;;
4422;SDS011;2224;49.814;8.650;2024-03-08T08:19:33;30.00;;;21.80;;
4422;SDS011;2224;49.814;8.650;2024-03-08T08:22:00;33.03;;;20.80;;
4422;SDS011;2224;49.814;8.650;2024-03-08T08:24:27;28.37;;;19.90;;
4422;SDS011;2224;49.814;8.650;2024-03-08T08:26:52;30.17;;;20.43;;
4422;SDS011;2224;49.814;8.650;2024-03-08T08:29:17;30.27;;;20.00;;
4422;SDS011;2224;49.814;8.650;2024-03-08T08:31:43;32.63;;;20.13;;
4422;SDS011;2224;49.814;8.650;2024-03-08T08:34:11;30.00;;;19.20;;
4422;SDS011;2224;49.814;8.650;2024-03-08T08:36:37;31.23;;;20.10;;
4422;SDS011;2224;49.814;8.650;2024-03-08T08:39:03;25.03;;;17.87;;
4422;SDS011;2224;49.814;8.650;2024-03-08T08:41:30;26.50;;;18.30;;
4422;SDS011;2224;49.814;8.650;2024-03-08T08:43:55;30.93;;;19.77;;
4422;SDS011;2224;49.814;8.650;2024-03-08T08:46:20;27.50;;;19.07;;
4422;SDS011;2224;49.814;8.650;2024-03-08T08:48:46;27.77;;;19.33;;
4422;SDS011;2224;49.814;8.650;2024-03-08T08:51:12;29.83;;;18.73;;
4422;SDS011;2224;49.814;8.650;2024-03-08T08:53:39;26.70;;;18.30;;
4422;SDS011;2224;49.814;8.650;2024-03-08T08:56:15;25.00;;;18.57;;
4422;SDS011;2224;49.814;8.650;2024-03-08T08:58:44;27.43;;;18.33;;
4422;SDS011;2224;49.814;8.650;2024-03-08T09:01:09;27.67;;;18.80;;
4422;SDS011;2224;49.814;8.650;2024-03-08T09:03:37;31.80;;;19.97;;
4422;SDS011;2224;49.814;8.650;2024-03-08T09:06:05;31.63;;;20.73;;
4422;SDS011;2224;49.814;8.650;2024-03-08T09:08:34;29.70;;;18.53;;
4422;SDS011;2224;49.814;8.650;2024-03-08T09:11:00;32.10;;;19.90;;
4422;SDS011;2224;49.814;8.650;2024-03-08T09:13:25;25.73;;;18.73;;
4422;SDS011;2224;49.814;8.650;2024-03-08T09:15:51;24.43;;;16.77;;
4422;SDS011;2224;49.814;8.650;2024-03-08T09:18:17;28.10;;;18.30;;
4422;SDS011;2224;49.814;8.650;2024-03-08T09:20:44;28.17;;;18.03;;
4422;SDS011;2224;49.814;8.650;2024-03-08T09:23:09;28.23;;;19.17;;
4422;SDS011;2224;49.814;8.650;2024-03-08T09:25:35;30.43;;;18.87;;
4422;SDS011;2224;49.814;8.650;2024-03-08T09:28:00;27.57;;;17.57;;
4422;SDS011;2224;49.814;8.650;2024-03-08T09:30:25;26.23;;;17.67;;
4422;SDS011;2224;49.814;8.650;2024-03-08T09:32:51;28.87;;;19.23;;
4422;SDS011;2224;49.814;8.650;2024-03-08T09:35:16;26.67;;;17.83;;
4422;SDS011;2224;49.814;8.650;2024-03-08T09:37:41;26.27;;;18.50;;
4422;SDS011;2224;49.814;8.650;2024-03-08T09:40:07;24.27;;;17.10;;
4422;SDS011;2224;49.814;8.650;2024-03-08T09:42:40;29.60;;;18.80;;
4422;SDS011;2224;49.814;8.650;2024-03-08T09:45:10;28.33;;;17.60;;
4422;SDS011;2224;49.814;8.650;2024-03-08T09:47:36;24.93;;;18.10;;
4422;SDS011;2224;49.814;8.650;2024-03-08T09:50:05;24.83;;;18.60;;
4422;SDS011;2224;49.814;8.650;2024-03-08T09:52:37;24.33;;;17.27;;
4422;SDS011;2224;49.814;8.650;2024-03-08T09:55:05;26.40;;;17.37;;
4422;SDS011;2224;49.814;8.650;2024-03-08T09:57:34;25.33;;;18.50;;
4422;SDS011;2224;49.814;8.650;2024-03-08T10:00:02;24.37;;;18.90;;
4422;SDS011;2224;49.814;8.650;2024-03-08T10:02:33;27.57;;;20.00;;
4422;SDS011;2224;49.814;8.650;2024-03-08T10:05:00;27.27;;;18.37;;
4422;SDS011;2224;49.814;8.650;2024-03-08T10:07:28;26.37;;;19.10;;
4422;SDS011;2224;49.814;8.650;2024-03-08T10:09:54;26.07;;;17.43;;
4422;SDS011;2224;49.814;8.650;2024-03-08T10:12:20;26.80;;;18.17;;
4422;SDS011;2224;49.814;8.650;2024-03-08T10:14:45;25.33;;;18.87;;
4422;SDS011;2224;49.814;8.650;2024-03-08T10:17:11;28.90;;;18.60;;
4422;SDS011;2224;49.814;8.650;2024-03-08T10:19:37;23.07;;;18.97;;
4422;SDS011;2224;49.814;8.650;2024-03-08T10:22:02;26.63;;;19.40;;
4422;SDS011;2224;49.814;8.650;2024-03-08T10:24:29;29.60;;;18.30;;
4422;SDS011;2224;49.814;8.650;2024-03-08T10:26:58;25.03;;;16.97;;
4422;SDS011;2224;49.814;8.650;2024-03-08T10:29:25;25.80;;;19.40;;
4422;SDS011;2224;49.814;8.650;2024-03-08T10:31:50;27.70;;;18.10;;
4422;SDS011;2224;49.814;8.650;2024-03-08T10:34:16;26.60;;;19.40;;
4422;SDS011;2224;49.814;8.650;2024-03-08T10:36:42;25.67;;;17.27;;
4422;SDS011;2224;49.814;8.650;2024-03-08T10:39:11;23.77;;;17.43;;
4422;SDS011;2224;49.814;8.650;2024-03-08T10:41:52;28.10;;;19.10;;
4422;SDS011;2224;49.814;8.650;2024-03-08T10:44:28;24.70;;;17.80;;
4422;SDS011;2224;49.814;8.650;2024-03-08T10:47:01;24.60;;;19.07;;
4422;SDS011;2224;49.814;8.650;2024-03-08T10:49:31;23.57;;;16.67;;
4422;SDS011;2224;49.814;8.650;2024-03-08T10:52:04;23.90;;;17.23;;
4422;SDS011;2224;49.814;8.650;2024-03-08T10:54:30;24.80;;;17.67;;
4422;SDS011;2224;49.814;8.650;2024-03-08T10:56:56;29.70;;;18.80;;
4422;SDS011;2224;49.814;8.650;2024-03-08T10:59:22;22.87;;;17.17;;
4422;SDS011;2224;49.814;8.650;2024-03-08T11:01:49;29.50;;;18.27;;
4422;SDS011;2224;49.814;8.650;2024-03-08T11:04:15;23.63;;;18.13;;
4422;SDS011;2224;49.814;8.650;2024-03-08T11:06:45;24.23;;;17.30;;
4422;SDS011;2224;49.814;8.650;2024-03-08T11:14:51;24.70;;;16.23;;
4422;SDS011;2224;49.814;8.650;2024-03-08T11:17:59;24.37;;;17.23;;
4422;SDS011;2224;49.814;8.650;2024-03-08T11:20:12;22.20;;;16.90;;
4422;SDS011;2224;49.814;8.650;2024-03-08T11:22:40;26.80;;;17.97;;
4422;SDS011;2224;49.814;8.650;2024-03-08T11:25:10;24.90;;;17.57;;
4422;SDS011;2224;49.814;8.650;2024-03-08T11:28:16;26.73;;;18.20;;
4422;SDS011;2224;49.814;8.650;2024-03-08T11:30:47;23.87;;;17.57;;
4422;SDS011;2224;49.814;8.650;2024-03-08T11:33:34;26.53;;;18.07;;
4422;SDS011;2224;49.814;8.650;2024-03-08T11:36:07;25.87;;;16.90;;
4422;SDS011;2224;49.814;8.650;2024-03-08T11:38:42;22.83;;;16.47;;
4422;SDS011;2224;49.814;8.650;2024-03-08T11:41:17;25.97;;;17.30;;
4422;SDS011;2224;49.814;8.650;2024-03-08T11:44:02;24.33;;;18.17;;
4422;SDS011;2224;49.814;8.650;2024-03-08T11:46:32;23.60;;;16.87;;
4422;SDS011;2224;49.814;8.650;2024-03-08T11:48:57;32.73;;;18.67;;
4422;SDS011;2224;49.814;8.650;2024-03-08T11:51:22;24.70;;;17.67;;
4422;SDS011;2224;49.814;8.650;2024-03-08T11:53:48;24.40;;;18.23;;
4422;SDS011;2224;49.814;8.650;2024-03-08T11:56:15;22.67;;;16.37;;
4422;SDS011;2224;49.814;8.650;2024-03-08T11:58:41;23.70;;;17.10;;
4422;SDS011;2224;49.814;8.650;2024-03-08T12:01:09;23.37;;;18.30;;
4422;SDS011;2224;49.814;8.650;2024-03-08T12:03:39;27.73;;;18.40;;
4422;SDS011;2224;49.814;8.650;2024-03-08T12:06:04;24.60;;;17.57;;
4422;SDS011;2224;49.814;8.650;2024-03-08T12:08:30;21.10;;;16.60;;
4422;SDS011;2224;49.814;8.650;2024-03-08T12:10:56;25.70;;;18.17;;
4422;SDS011;2224;49.814;8.650;2024-03-08T12:13:28;24.47;;;17.47;;
4422;SDS011;2224;49.814;8.650;2024-03-08T12:15:58;20.77;;;16.97;;
4422;SDS011;2224;49.814;8.650;2024-03-08T12:18:25;23.50;;;17.27;;
4422;SDS011;2224;49.814;8.650;2024-03-08T12:20:51;22.27;;;16.60;;
4422;SDS011;2224;49.814;8.650;2024-03-08T12:23:16;25.23;;;18.67;;
4422;SDS011;2224;49.814;8.650;2024-03-08T12:25:42;22.87;;;16.73;;
4422;SDS011;2224;49.814;8.650;2024-03-08T12:28:08;22.47;;;17.10;;
4422;SDS011;2224;49.814;8.650;2024-03-08T12:30:50;24.37;;;17.00;;
4422;SDS011;2224;49.814;8.650;2024-03-08T12:33:22;22.50;;;16.80;;
4422;SDS011;2224;49.814;8.650;2024-03-08T12:35:54;21.37;;;16.73;;
4422;SDS011;2224;49.814;8.650;2024-03-08T12:38:20;22.13;;;16.90;;
4422;SDS011;2224;49.814;8.650;2024-03-08T12:40:50;23.90;;;16.90;;
4422;SDS011;2224;49.814;8.650;2024-03-08T12:43:15;24.40;;;17.37;;
4422;SDS011;2224;49.814;8.650;2024-03-08T12:45:41;27.90;;;18.77;;
4422;SDS011;2224;49.814;8.650;2024-03-08T12:48:12;23.00;;;17.23;;
4422;SDS011;2224;49.814;8.650;2024-03-08T12:50:39;25.17;;;17.40;;
4422;SDS011;2224;49.814;8.650;2024-03-08T12:53:04;24.33;;;18.27;;
4422;SDS011;2224;49.814;8.650;2024-03-08T12:55:29;22.70;;;17.93;;
4422;SDS011;2224;49.814;8.650;2024-03-08T12:57:55;21.30;;;16.70;;
4422;SDS011;2224;49.814;8.650;2024-03-08T13:00:20;22.60;;;17.23;;
4422;SDS011;2224;49.814;8.650;2024-03-08T13:02:48;22.00;;;16.63;;
4422;SDS011;2224;49.814;8.650;2024-03-08T13:05:14;24.00;;;17.47;;
4422;SDS011;2224;49.814;8.650;2024-03-08T13:07:43;22.10;;;18.20;;
4422;SDS011;2224;49.814;8.650;2024-03-08T13:10:14;21.20;;;17.93;;
4422;SDS011;2224;49.814;8.650;2024-03-08T13:12:43;22.40;;;17.53;;
4422;SDS011;2224;49.814;8.650;2024-03-08T13:15:09;21.30;;;17.83;;
4422;SDS011;2224;49.814;8.650;2024-03-08T13:17:39;19.67;;;17.07;;
4422;SDS011;2224;49.814;8.650;2024-03-08T13:20:05;21.20;;;17.43;;
4422;SDS011;2224;49.814;8.650;2024-03-08T13:22:34;22.50;;;18.00;;
4422;SDS011;2224;49.814;8.650;2024-03-08T13:25:00;20.40;;;16.73;;
4422;SDS011;2224;49.814;8.650;2024-03-08T13:27:29;23.30;;;17.30;;
4422;SDS011;2224;49.814;8.650;2024-03-08T13:29:54;22.80;;;18.50;;
4422;SDS011;2224;49.814;8.650;2024-03-08T13:32:19;19.87;;;16.37;;
4422;SDS011;2224;49.814;8.650;2024-03-08T13:34:49;20.10;;;17.13;;
4422;SDS011;2224;49.814;8.650;2024-03-08T13:37:15;23.60;;;16.13;;
4422;SDS011;2224;49.814;8.650;2024-03-08T13:39:41;19.97;;;16.40;;
4422;SDS011;2224;49.814;8.650;2024-03-08T13:42:17;18.23;;;15.80;;
4422;SDS011;2224;49.814;8.650;2024-03-08T13:44:44;18.90;;;16.67;;
4422;SDS011;2224;49.814;8.650;2024-03-08T13:47:10;20.07;;;16.60;;
4422;SDS011;2224;49.814;8.650;2024-03-08T13:49:36;20.50;;;17.07;;
4422;SDS011;2224;49.814;8.650;2024-03-08T13:52:02;19.20;;;16.70;;
4422;SDS011;2224;49.814;8.650;2024-03-08T13:54:29;20.73;;;16.90;;
4422;SDS011;2224;49.814;8.650;2024-03-08T13:56:56;23.10;;;17.40;;
4422;SDS011;2224;49.814;8.650;2024-03-08T13:59:22;21.27;;;17.47;;
4422;SDS011;2224;49.814;8.650;2024-03-08T14:01:48;19.70;;;15.33;;
4422;SDS011;2224;49.814;8.650;2024-03-08T14:04:14;19.10;;;16.37;;
4422;SDS011;2224;49.814;8.650;2024-03-08T14:06:39;21.20;;;17.70;;
4422;SDS011;2224;49.814;8.650;2024-03-08T14:09:04;22.70;;;16.93;;
4422;SDS011;2224;49.814;8.650;2024-03-08T14:11:32;20.80;;;16.70;;
4422;SDS011;2224;49.814;8.650;2024-03-08T14:13:58;20.90;;;17.30;;
4422;SDS011;2224;49.814;8.650;2024-03-08T14:16:23;19.63;;;17.53;;
4422;SDS011;2224;49.814;8.650;2024-03-08T14:18:48;19.87;;;16.87;;
4422;SDS011;2224;49.814;8.650;2024-03-08T14:21:14;22.13;;;17.50;;
4422;SDS011;2224;49.814;8.650;2024-03-08T14:23:41;21.87;;;18.33;;
4422;SDS011;2224;49.814;8.650;2024-03-08T14:26:07;19.23;;;15.73;;
4422;SDS011;2224;49.814;8.650;2024-03-08T14:28:32;20.60;;;16.60;;
4422;SDS011;2224;49.814;8.650;2024-03-08T14:30:58;21.27;;;16.93;;
4422;SDS011;2224;49.814;8.650;2024-03-08T14:33:23;21.20;;;16.37;;
4422;SDS011;2224;49.814;8.650;2024-03-08T14:35:50;21.20;;;17.30;;
4422;SDS011;2224;49.814;8.650;2024-03-08T14:38:16;22.90;;;18.13;;
4422;SDS011;2224;49.814;8.650;2024-03-08T14:40:43;20.80;;;15.30;;
4422;SDS011;2224;49.814;8.650;2024-03-08T14:43:12;18.53;;;15.43;;
4422;SDS011;2224;49.814;8.650;2024-03-08T14:45:38;18.43;;;15.10;;
4422;SDS011;2224;49.814;8.650;2024-03-08T14:48:03;20.63;;;14.70;;
4422;SDS011;2224;49.814;8.650;2024-03-08T14:50:29;22.20;;;17.47;;
4422;SDS011;2224;49.814;8.650;2024-03-08T14:52:56;17.83;;;15.43;;